createdAt,value
2018-02-21T00:00:00.806Z,1017.9
2018-02-21T00:00:26.902Z,1017.92
2018-02-21T00:00:53.001Z,1017.92
2018-02-21T00:01:19.135Z,1017.92
2018-02-21T00:01:45.200Z,1017.94
2018-02-21T00:02:11.313Z,1017.96
2018-02-21T00:02:37.416Z,1017.96
2018-02-21T00:03:03.510Z,1017.96
2018-02-21T00:03:29.614Z,1017.97
2018-02-21T00:03:55.717Z,1018.02
2018-02-21T00:04:21.814Z,1018.01
2018-02-21T00:04:47.917Z,1018.02
2018-02-21T00:05:14.013Z,1018.05
2018-02-21T00:05:40.128Z,1018.03
2018-02-21T00:06:06.232Z,1018.02
2018-02-21T00:06:32.329Z,1018.05
2018-02-21T00:06:58.467Z,1018.04
2018-02-21T00:07:24.570Z,1018.03
2018-02-21T00:07:50.665Z,1018.04
2018-02-21T00:08:16.767Z,1018.04
2018-02-21T00:08:43.156Z,1018.02
2018-02-21T00:09:09.261Z,1018
2018-02-21T00:09:35.356Z,1017.97
2018-02-21T00:10:01.476Z,1017.95
2018-02-21T00:10:27.589Z,1017.93
2018-02-21T00:10:53.695Z,1017.91
2018-02-21T00:11:19.790Z,1017.92
2018-02-21T00:11:45.893Z,1017.88
2018-02-21T00:12:12.000Z,1017.87
2018-02-21T00:12:38.093Z,1017.84
2018-02-21T00:13:04.207Z,1017.81
2018-02-21T00:13:30.335Z,1017.81
2018-02-21T00:13:56.411Z,1017.81
2018-02-21T00:14:22.505Z,1017.84
2018-02-21T00:14:48.607Z,1017.81
2018-02-21T00:15:14.703Z,1017.81
2018-02-21T00:15:40.800Z,1017.77
2018-02-21T00:16:06.903Z,1017.78
2018-02-21T00:16:33.002Z,1017.81
2018-02-21T00:16:59.099Z,1017.81
2018-02-21T00:17:25.207Z,1017.82
2018-02-21T00:17:51.309Z,1017.84
2018-02-21T00:18:17.403Z,1017.82
2018-02-21T00:18:43.511Z,1017.82
2018-02-21T00:19:09.608Z,1017.83
2018-02-21T00:19:35.706Z,1017.82
2018-02-21T00:20:01.801Z,1017.87
2018-02-21T00:20:27.902Z,1017.88
2018-02-21T00:20:54.021Z,1017.88
2018-02-21T00:21:20.143Z,1017.88
2018-02-21T00:21:46.268Z,1017.89
2018-02-21T00:22:12.373Z,1017.91
2018-02-21T00:22:38.473Z,1017.96
2018-02-21T00:23:04.569Z,1017.95
2018-02-21T00:23:30.674Z,1017.95
2018-02-21T00:23:56.771Z,1018.01
2018-02-21T00:24:22.868Z,1018.01
2018-02-21T00:24:48.965Z,1017.98
2018-02-21T00:25:15.073Z,1017.99
2018-02-21T00:25:41.164Z,1018
2018-02-21T00:26:07.267Z,1017.99
2018-02-21T00:26:33.367Z,1018
2018-02-21T00:26:59.466Z,1017.98
2018-02-21T00:27:25.583Z,1017.99
2018-02-21T00:27:51.683Z,1017.98
2018-02-21T00:28:17.798Z,1017.99
2018-02-21T00:28:43.901Z,1017.96
2018-02-21T00:29:09.994Z,1017.95
2018-02-21T00:29:36.092Z,1017.94
2018-02-21T00:30:02.197Z,1017.92
2018-02-21T00:30:28.308Z,1017.91
2018-02-21T00:30:54.409Z,1017.88
2018-02-21T00:31:20.528Z,1017.89
2018-02-21T00:31:46.623Z,1017.88
2018-02-21T00:32:12.725Z,1017.91
2018-02-21T00:32:38.821Z,1017.84
2018-02-21T00:33:04.932Z,1017.82
2018-02-21T00:33:31.030Z,1017.82
2018-02-21T00:33:57.130Z,1017.78
2018-02-21T00:34:23.231Z,1017.77
2018-02-21T00:34:49.324Z,1017.83
2018-02-21T00:35:15.429Z,1017.79
2018-02-21T00:35:41.530Z,1017.78
2018-02-21T00:36:07.644Z,1017.8
2018-02-21T00:36:33.737Z,1017.79
2018-02-21T00:36:59.839Z,1017.81
2018-02-21T00:37:25.940Z,1017.8
2018-02-21T00:37:52.060Z,1017.77
2018-02-21T00:38:18.160Z,1017.79
2018-02-21T00:38:44.263Z,1017.78
2018-02-21T00:39:10.401Z,1017.8
2018-02-21T00:39:36.460Z,1017.77
2018-02-21T00:40:02.562Z,1017.79
2018-02-21T00:40:28.653Z,1017.8
2018-02-21T00:40:54.751Z,1017.83
2018-02-21T00:41:20.857Z,1017.8
2018-02-21T00:41:46.952Z,1017.83
2018-02-21T00:42:13.047Z,1017.86
2018-02-21T00:42:39.152Z,1017.85
2018-02-21T00:43:05.262Z,1017.83
2018-02-21T00:43:31.363Z,1017.82
2018-02-21T00:43:57.462Z,1017.87
2018-02-21T00:44:23.563Z,1017.85
2018-02-21T00:44:49.668Z,1017.88
2018-02-21T00:45:15.758Z,1017.89
2018-02-21T00:45:41.861Z,1017.89
2018-02-21T00:46:07.954Z,1017.88
2018-02-21T00:46:34.058Z,1017.91
2018-02-21T00:47:00.173Z,1017.94
2018-02-21T00:47:26.266Z,1017.93
2018-02-21T00:47:52.359Z,1017.96
2018-02-21T00:48:18.460Z,1017.97
2018-02-21T00:48:44.577Z,1017.97
2018-02-21T00:49:10.684Z,1017.97
2018-02-21T00:49:36.800Z,1017.97
2018-02-21T00:50:02.898Z,1018.01
2018-02-21T00:50:28.991Z,1018
2018-02-21T00:50:55.093Z,1018.02
2018-02-21T00:51:21.196Z,1018.02
2018-02-21T00:51:47.310Z,1018.02
2018-02-21T00:52:13.421Z,1018.04
2018-02-21T00:52:39.524Z,1018.01
2018-02-21T00:53:05.620Z,1018.01
2018-02-21T00:53:31.725Z,1018.04
2018-02-21T00:53:57.822Z,1018.02
2018-02-21T00:54:23.927Z,1018.03
2018-02-21T00:54:50.020Z,1017.98
2018-02-21T00:55:16.124Z,1018.03
2018-02-21T00:55:42.218Z,1017.99
2018-02-21T00:56:08.321Z,1017.98
2018-02-21T00:56:34.424Z,1017.97
2018-02-21T00:57:00.514Z,1017.98
2018-02-21T00:57:26.619Z,1017.99
2018-02-21T00:57:52.727Z,1017.95
2018-02-21T00:58:18.827Z,1017.94
2018-02-21T00:58:44.930Z,1017.95
2018-02-21T00:59:11.041Z,1017.92
2018-02-21T00:59:37.143Z,1017.94
2018-02-21T01:00:03.243Z,1017.91
2018-02-21T01:00:29.337Z,1017.92
2018-02-21T01:00:55.433Z,1017.89
2018-02-21T01:01:21.557Z,1017.91
2018-02-21T01:01:47.652Z,1017.92
2018-02-21T01:02:13.755Z,1017.91
2018-02-21T01:02:39.877Z,1017.88
2018-02-21T01:03:05.971Z,1017.91
2018-02-21T01:03:32.069Z,1017.94
2018-02-21T01:03:58.173Z,1017.9
2018-02-21T01:04:24.267Z,1017.89
2018-02-21T01:04:50.386Z,1017.89
2018-02-21T01:05:16.489Z,1017.91
2018-02-21T01:05:42.585Z,1017.92
2018-02-21T01:06:08.683Z,1017.97
2018-02-21T01:06:34.786Z,1017.96
2018-02-21T01:07:00.887Z,1017.96
2018-02-21T01:07:26.982Z,1017.94
2018-02-21T01:07:53.101Z,1017.97
2018-02-21T01:08:19.199Z,1017.94
2018-02-21T01:08:45.295Z,1017.96
2018-02-21T01:09:11.399Z,1017.95
2018-02-21T01:09:37.492Z,1017.97
2018-02-21T01:10:03.596Z,1017.99
2018-02-21T01:10:29.695Z,1017.99
2018-02-21T01:10:55.790Z,1017.97
2018-02-21T01:11:21.886Z,1017.98
2018-02-21T01:11:47.988Z,1017.99
2018-02-21T01:12:14.086Z,1018.03
2018-02-21T01:12:40.191Z,1017.97
2018-02-21T01:13:06.289Z,1017.98
2018-02-21T01:13:32.386Z,1017.99
2018-02-21T01:13:58.502Z,1017.96
2018-02-21T01:14:24.606Z,1017.94
2018-02-21T01:14:50.702Z,1017.95
2018-02-21T01:15:16.816Z,1017.93
2018-02-21T01:15:42.919Z,1017.93
2018-02-21T01:16:09.016Z,1017.94
2018-02-21T01:16:35.119Z,1017.91
2018-02-21T01:17:01.216Z,1017.91
2018-02-21T01:17:27.325Z,1017.92
2018-02-21T01:17:53.428Z,1017.95
2018-02-21T01:18:19.522Z,1017.93
2018-02-21T01:18:45.623Z,1017.91
2018-02-21T01:19:11.733Z,1017.86
2018-02-21T01:19:37.834Z,1017.87
2018-02-21T01:20:03.937Z,1017.86
2018-02-21T01:20:30.032Z,1017.87
2018-02-21T01:20:56.128Z,1017.85
2018-02-21T01:21:22.232Z,1017.86
2018-02-21T01:21:48.325Z,1017.85
2018-02-21T01:22:14.424Z,1017.87
2018-02-21T01:22:40.520Z,1017.83
2018-02-21T01:23:06.616Z,1017.87
2018-02-21T01:23:32.711Z,1017.85
2018-02-21T01:23:58.816Z,1017.8
2018-02-21T01:24:24.911Z,1017.82
2018-02-21T01:24:51.025Z,1017.77
2018-02-21T01:25:17.122Z,1017.76
2018-02-21T01:25:43.225Z,1017.77
2018-02-21T01:26:09.339Z,1017.75
2018-02-21T01:26:35.439Z,1017.75
2018-02-21T01:27:01.540Z,1017.77
2018-02-21T01:27:27.638Z,1017.76
2018-02-21T01:27:53.742Z,1017.77
2018-02-21T01:28:19.841Z,1017.78
2018-02-21T01:28:45.938Z,1017.77
2018-02-21T01:29:12.038Z,1017.76
2018-02-21T01:29:38.132Z,1017.73
2018-02-21T01:30:04.231Z,1017.78
2018-02-21T01:30:30.332Z,1017.8
2018-02-21T01:30:56.434Z,1017.78
2018-02-21T01:31:22.533Z,1017.74
2018-02-21T01:31:48.634Z,1017.75
2018-02-21T01:32:14.734Z,1017.78
2018-02-21T01:32:40.831Z,1017.75
2018-02-21T01:33:06.934Z,1017.75
2018-02-21T01:33:33.026Z,1017.76
2018-02-21T01:33:59.127Z,1017.76
2018-02-21T01:34:25.221Z,1017.72
2018-02-21T01:34:51.321Z,1017.75
2018-02-21T01:35:17.423Z,1017.75
2018-02-21T01:35:43.530Z,1017.72
2018-02-21T01:36:09.630Z,1017.73
2018-02-21T01:36:35.730Z,1017.72
2018-02-21T01:37:01.830Z,1017.72
2018-02-21T01:37:27.925Z,1017.74
2018-02-21T01:37:54.029Z,1017.73
2018-02-21T01:38:20.127Z,1017.72
2018-02-21T01:38:46.224Z,1017.7
2018-02-21T01:39:12.326Z,1017.67
2018-02-21T01:39:38.420Z,1017.68
2018-02-21T01:40:04.519Z,1017.69
2018-02-21T01:40:30.623Z,1017.71
2018-02-21T01:40:56.722Z,1017.66
2018-02-21T01:41:22.818Z,1017.66
2018-02-21T01:41:48.922Z,1017.65
2018-02-21T01:42:15.041Z,1017.64
2018-02-21T01:42:41.135Z,1017.68
2018-02-21T01:43:07.239Z,1017.64
2018-02-21T01:43:33.333Z,1017.66
2018-02-21T01:43:59.435Z,1017.63
2018-02-21T01:44:25.538Z,1017.6
2018-02-21T01:44:51.644Z,1017.62
2018-02-21T01:45:17.746Z,1017.62
2018-02-21T01:45:43.847Z,1017.61
2018-02-21T01:46:09.946Z,1017.66
2018-02-21T01:46:36.044Z,1017.66
2018-02-21T01:47:02.146Z,1017.67
2018-02-21T01:47:28.241Z,1017.69
2018-02-21T01:47:54.342Z,1017.7
2018-02-21T01:48:20.441Z,1017.75
2018-02-21T01:48:46.537Z,1017.76
2018-02-21T01:49:12.641Z,1017.77
2018-02-21T01:49:38.740Z,1017.8
2018-02-21T01:50:04.840Z,1017.8
2018-02-21T01:50:30.939Z,1017.84
2018-02-21T01:50:57.057Z,1017.86
2018-02-21T01:51:23.168Z,1017.9
2018-02-21T01:51:49.269Z,1017.92
2018-02-21T01:52:15.366Z,1017.93
2018-02-21T01:52:41.468Z,1017.94
2018-02-21T01:53:07.571Z,1017.94
2018-02-21T01:53:33.662Z,1017.97
2018-02-21T01:53:59.758Z,1017.96
2018-02-21T01:54:25.859Z,1017.95
2018-02-21T01:54:51.959Z,1017.97
2018-02-21T01:55:18.060Z,1017.94
2018-02-21T01:55:44.162Z,1017.96
2018-02-21T01:56:10.262Z,1017.94
2018-02-21T01:56:36.354Z,1017.94
2018-02-21T01:57:02.473Z,1017.91
2018-02-21T01:57:28.571Z,1017.92
2018-02-21T01:57:54.686Z,1017.89
2018-02-21T01:58:20.787Z,1017.89
2018-02-21T01:58:46.885Z,1017.88
2018-02-21T01:59:13.001Z,1017.83
2018-02-21T01:59:39.099Z,1017.85
2018-02-21T02:00:05.204Z,1017.84
2018-02-21T02:00:31.308Z,1017.8
2018-02-21T02:00:57.408Z,1017.78
2018-02-21T02:01:23.513Z,1017.79
2018-02-21T02:01:49.610Z,1017.77
2018-02-21T02:02:15.713Z,1017.79
2018-02-21T02:02:41.819Z,1017.78
2018-02-21T02:03:07.920Z,1017.8
2018-02-21T02:03:34.021Z,1017.78
2018-02-21T02:04:00.118Z,1017.8
2018-02-21T02:04:26.216Z,1017.8
2018-02-21T02:04:52.311Z,1017.79
2018-02-21T02:05:18.408Z,1017.8
2018-02-21T02:05:44.512Z,1017.82
2018-02-21T02:06:10.607Z,1017.81
2018-02-21T02:06:36.712Z,1017.81
2018-02-21T02:07:02.810Z,1017.81
2018-02-21T02:07:28.919Z,1017.8
2018-02-21T02:07:55.022Z,1017.82
2018-02-21T02:08:21.132Z,1017.79
2018-02-21T02:08:47.232Z,1017.79
2018-02-21T02:09:13.330Z,1017.78
2018-02-21T02:09:39.423Z,1017.79
2018-02-21T02:10:05.525Z,1017.83
2018-02-21T02:10:31.624Z,1017.81
2018-02-21T02:10:57.721Z,1017.82
2018-02-21T02:11:23.820Z,1017.81
2018-02-21T02:11:49.913Z,1017.81
2018-02-21T02:12:16.035Z,1017.8
2018-02-21T02:12:42.132Z,1017.84
2018-02-21T02:13:08.236Z,1017.83
2018-02-21T02:13:34.330Z,1017.83
2018-02-21T02:14:00.431Z,1017.84
2018-02-21T02:14:26.527Z,1017.83
2018-02-21T02:14:52.627Z,1017.82
2018-02-21T02:15:18.720Z,1017.86
2018-02-21T02:15:44.821Z,1017.87
2018-02-21T02:16:10.920Z,1017.86
2018-02-21T02:16:37.023Z,1017.86
2018-02-21T02:17:03.116Z,1017.86
2018-02-21T02:17:29.219Z,1017.83
2018-02-21T02:17:55.324Z,1017.85
2018-02-21T02:18:21.420Z,1017.82
2018-02-21T02:18:47.513Z,1017.8
2018-02-21T02:19:13.626Z,1017.84
2018-02-21T02:19:39.724Z,1017.86
2018-02-21T02:20:05.820Z,1017.87
2018-02-21T02:20:31.924Z,1017.83
2018-02-21T02:20:58.029Z,1017.89
2018-02-21T02:21:24.127Z,1017.91
2018-02-21T02:21:50.222Z,1017.86
2018-02-21T02:22:16.320Z,1017.91
2018-02-21T02:22:42.421Z,1017.93
2018-02-21T02:23:08.518Z,1017.94
2018-02-21T02:23:34.618Z,1017.95
2018-02-21T02:24:00.711Z,1017.95
2018-02-21T02:24:26.809Z,1017.94
2018-02-21T02:24:52.912Z,1017.98
2018-02-21T02:25:19.046Z,1017.97
2018-02-21T02:25:45.151Z,1017.98
2018-02-21T02:26:11.243Z,1017.99
2018-02-21T02:26:37.340Z,1017.98
2018-02-21T02:27:03.443Z,1018.02
2018-02-21T02:27:29.541Z,1018
2018-02-21T02:27:55.659Z,1018.01
2018-02-21T02:28:21.753Z,1018.06
2018-02-21T02:28:47.855Z,1018.03
2018-02-21T02:29:13.952Z,1018.04
2018-02-21T02:29:40.053Z,1018.03
2018-02-21T02:30:06.166Z,1018.05
2018-02-21T02:30:32.289Z,1018.04
2018-02-21T02:30:58.395Z,1018.09
2018-02-21T02:31:24.503Z,1018.07
2018-02-21T02:31:50.631Z,1018.07
2018-02-21T02:32:16.748Z,1018.08
2018-02-21T02:32:42.842Z,1018.07
2018-02-21T02:33:08.949Z,1018.08
2018-02-21T02:33:35.059Z,1018.07
2018-02-21T02:34:01.157Z,1018.08
2018-02-21T02:34:27.259Z,1018.05
2018-02-21T02:34:53.358Z,1018.11
2018-02-21T02:35:19.462Z,1018.06
2018-02-21T02:35:45.559Z,1018.1
2018-02-21T02:36:11.659Z,1018.08
2018-02-21T02:36:37.762Z,1018.09
2018-02-21T02:37:03.862Z,1018.05
2018-02-21T02:37:29.965Z,1018.08
2018-02-21T02:37:56.066Z,1018.08
2018-02-21T02:38:22.159Z,1018.11
2018-02-21T02:38:48.258Z,1018.13
2018-02-21T02:39:14.377Z,1018.1
2018-02-21T02:39:40.472Z,1018.16
2018-02-21T02:40:06.594Z,1018.16
2018-02-21T02:40:32.689Z,1018.17
2018-02-21T02:40:58.796Z,1018.18
2018-02-21T02:41:24.889Z,1018.23
2018-02-21T02:41:51.014Z,1018.24
2018-02-21T02:42:17.104Z,1018.25
2018-02-21T02:42:43.209Z,1018.28
2018-02-21T02:43:09.321Z,1018.26
2018-02-21T02:43:35.441Z,1018.27
2018-02-21T02:44:01.536Z,1018.32
2018-02-21T02:44:27.626Z,1018.33
2018-02-21T02:44:53.745Z,1018.34
2018-02-21T02:45:19.847Z,1018.36
2018-02-21T02:45:45.946Z,1018.37
2018-02-21T02:46:12.062Z,1018.4
2018-02-21T02:46:38.169Z,1018.47
2018-02-21T02:47:04.282Z,1018.4
2018-02-21T02:47:30.379Z,1018.46
2018-02-21T02:47:56.478Z,1018.5
2018-02-21T02:48:22.576Z,1018.51
2018-02-21T02:48:48.694Z,1018.52
2018-02-21T02:49:14.793Z,1018.52
2018-02-21T02:49:40.904Z,1018.56
2018-02-21T02:50:06.999Z,1018.55
2018-02-21T02:50:33.103Z,1018.56
2018-02-21T02:50:59.196Z,1018.6
2018-02-21T02:51:25.323Z,1018.55
2018-02-21T02:51:51.418Z,1018.55
2018-02-21T02:52:17.519Z,1018.57
2018-02-21T02:52:43.614Z,1018.55
2018-02-21T02:53:09.714Z,1018.53
2018-02-21T02:53:35.852Z,1018.51
2018-02-21T02:54:01.946Z,1018.55
2018-02-21T02:54:28.049Z,1018.51
2018-02-21T02:54:54.148Z,1018.49
2018-02-21T02:55:20.242Z,1018.49
2018-02-21T02:55:46.348Z,1018.48
2018-02-21T02:56:12.444Z,1018.45
2018-02-21T02:56:38.538Z,1018.47
2018-02-21T02:57:04.645Z,1018.51
2018-02-21T02:57:30.740Z,1018.48
2018-02-21T02:57:56.843Z,1018.42
2018-02-21T02:58:22.939Z,1018.44
2018-02-21T02:58:49.037Z,1018.44
2018-02-21T02:59:15.140Z,1018.43
2018-02-21T02:59:41.238Z,1018.44
2018-02-21T03:00:07.348Z,1018.44
2018-02-21T03:00:33.453Z,1018.44
2018-02-21T03:00:59.563Z,1018.44
2018-02-21T03:01:25.647Z,1018.41
2018-02-21T03:01:51.751Z,1018.46
2018-02-21T03:02:17.846Z,1018.46
2018-02-21T03:02:43.943Z,1018.47
2018-02-21T03:03:10.059Z,1018.47
2018-02-21T03:03:36.152Z,1018.46
2018-02-21T03:04:02.252Z,1018.52
2018-02-21T03:04:28.349Z,1018.51
2018-02-21T03:04:54.445Z,1018.49
2018-02-21T03:05:20.550Z,1018.52
2018-02-21T03:05:46.651Z,1018.51
2018-02-21T03:06:12.752Z,1018.56
2018-02-21T03:06:38.871Z,1018.55
2018-02-21T03:07:04.972Z,1018.56
2018-02-21T03:07:31.080Z,1018.54
2018-02-21T03:07:57.172Z,1018.56
2018-02-21T03:08:23.262Z,1018.64
2018-02-21T03:08:49.366Z,1018.56
2018-02-21T03:09:15.457Z,1018.59
2018-02-21T03:09:41.555Z,1018.59
2018-02-21T03:10:07.675Z,1018.57
2018-02-21T03:10:33.793Z,1018.57
2018-02-21T03:10:59.890Z,1018.57
2018-02-21T03:11:25.991Z,1018.54
2018-02-21T03:11:52.089Z,1018.55
2018-02-21T03:12:18.192Z,1018.54
2018-02-21T03:12:44.291Z,1018.52
2018-02-21T03:13:10.386Z,1018.57
2018-02-21T03:13:36.487Z,1018.5
2018-02-21T03:14:02.586Z,1018.55
2018-02-21T03:14:28.689Z,1018.53
2018-02-21T03:14:54.806Z,1018.5
2018-02-21T03:15:20.902Z,1018.49
2018-02-21T03:15:47.004Z,1018.51
2018-02-21T03:16:13.100Z,1018.51
2018-02-21T03:16:39.194Z,1018.53
2018-02-21T03:17:05.298Z,1018.55
2018-02-21T03:17:31.393Z,1018.52
2018-02-21T03:17:57.517Z,1018.49
2018-02-21T03:18:23.614Z,1018.54
2018-02-21T03:18:49.711Z,1018.53
2018-02-21T03:19:15.827Z,1018.49
2018-02-21T03:19:41.920Z,1018.53
2018-02-21T03:20:08.024Z,1018.52
2018-02-21T03:20:34.121Z,1018.55
2018-02-21T03:21:00.218Z,1018.54
2018-02-21T03:21:26.322Z,1018.53
2018-02-21T03:21:52.417Z,1018.58
2018-02-21T03:22:18.534Z,1018.57
2018-02-21T03:22:44.628Z,1018.54
2018-02-21T03:23:10.728Z,1018.6
2018-02-21T03:23:36.831Z,1018.6
2018-02-21T03:24:02.929Z,1018.59
2018-02-21T03:24:29.031Z,1018.65
2018-02-21T03:24:55.158Z,1018.59
2018-02-21T03:25:21.229Z,1018.61
2018-02-21T03:25:47.326Z,1018.63
2018-02-21T03:26:13.431Z,1018.61
2018-02-21T03:26:39.527Z,1018.61
2018-02-21T03:27:05.638Z,1018.63
2018-02-21T03:27:31.758Z,1018.59
2018-02-21T03:27:57.858Z,1018.61
2018-02-21T03:28:23.951Z,1018.59
2018-02-21T03:28:50.068Z,1018.59
2018-02-21T03:29:16.165Z,1018.56
2018-02-21T03:29:42.269Z,1018.57
2018-02-21T03:30:08.390Z,1018.54
2018-02-21T03:30:34.486Z,1018.55
2018-02-21T03:31:00.587Z,1018.53
2018-02-21T03:31:26.685Z,1018.55
2018-02-21T03:31:52.788Z,1018.53
2018-02-21T03:32:18.896Z,1018.5
2018-02-21T03:32:45.015Z,1018.49
2018-02-21T03:33:11.119Z,1018.52
2018-02-21T03:33:37.214Z,1018.47
2018-02-21T03:34:03.313Z,1018.44
2018-02-21T03:34:29.428Z,1018.45
2018-02-21T03:34:55.534Z,1018.43
2018-02-21T03:35:21.650Z,1018.44
2018-02-21T03:35:47.742Z,1018.44
2018-02-21T03:36:13.839Z,1018.43
2018-02-21T03:36:39.936Z,1018.47
2018-02-21T03:37:06.040Z,1018.46
2018-02-21T03:37:32.142Z,1018.45
2018-02-21T03:37:58.235Z,1018.49
2018-02-21T03:38:24.335Z,1018.47
2018-02-21T03:38:50.430Z,1018.45
2018-02-21T03:39:16.534Z,1018.49
2018-02-21T03:39:42.646Z,1018.45
2018-02-21T03:40:08.749Z,1018.52
2018-02-21T03:40:34.863Z,1018.46
2018-02-21T03:41:00.956Z,1018.51
2018-02-21T03:41:27.060Z,1018.54
2018-02-21T03:41:53.153Z,1018.48
2018-02-21T03:42:19.254Z,1018.53
2018-02-21T03:42:45.351Z,1018.51
2018-02-21T03:43:11.452Z,1018.51
2018-02-21T03:43:37.553Z,1018.5
2018-02-21T03:44:03.647Z,1018.52
2018-02-21T03:44:29.749Z,1018.5
2018-02-21T03:44:55.846Z,1018.53
2018-02-21T03:45:21.943Z,1018.53
2018-02-21T03:45:48.068Z,1018.52
2018-02-21T03:46:14.162Z,1018.52
2018-02-21T03:46:40.269Z,1018.52
2018-02-21T03:47:06.366Z,1018.51
2018-02-21T03:47:32.458Z,1018.51
2018-02-21T03:47:58.560Z,1018.56
2018-02-21T03:48:24.656Z,1018.55
2018-02-21T03:48:50.749Z,1018.56
2018-02-21T03:49:16.858Z,1018.56
2018-02-21T03:49:42.958Z,1018.57
2018-02-21T03:50:09.054Z,1018.57
2018-02-21T03:50:35.152Z,1018.56
2018-02-21T03:51:01.249Z,1018.52
2018-02-21T03:51:27.353Z,1018.54
2018-02-21T03:51:53.445Z,1018.59
2018-02-21T03:52:19.549Z,1018.58
2018-02-21T03:52:45.644Z,1018.58
2018-02-21T03:53:11.762Z,1018.53
2018-02-21T03:53:37.856Z,1018.54
2018-02-21T03:54:03.955Z,1018.58
2018-02-21T03:54:30.052Z,1018.57
2018-02-21T03:54:56.158Z,1018.57
2018-02-21T03:55:22.386Z,1018.62
2018-02-21T03:55:48.501Z,1018.57
2018-02-21T03:56:14.598Z,1018.61
2018-02-21T03:56:40.695Z,1018.61
2018-02-21T03:57:06.799Z,1018.66
2018-02-21T03:57:32.900Z,1018.66
2018-02-21T03:57:58.995Z,1018.66
2018-02-21T03:58:25.096Z,1018.65
2018-02-21T03:58:51.191Z,1018.67
2018-02-21T03:59:17.322Z,1018.71
2018-02-21T03:59:43.421Z,1018.67
2018-02-21T04:00:09.519Z,1018.72
2018-02-21T04:00:35.638Z,1018.69
2018-02-21T04:01:01.763Z,1018.66
2018-02-21T04:01:27.859Z,1018.65
2018-02-21T04:01:53.963Z,1018.65
2018-02-21T04:02:20.076Z,1018.67
2018-02-21T04:02:46.178Z,1018.63
2018-02-21T04:03:12.290Z,1018.61
2018-02-21T04:03:38.393Z,1018.63
2018-02-21T04:04:04.488Z,1018.64
2018-02-21T04:04:30.590Z,1018.65
2018-02-21T04:04:56.683Z,1018.65
2018-02-21T04:05:22.788Z,1018.63
2018-02-21T04:05:48.884Z,1018.66
2018-02-21T04:06:14.976Z,1018.67
2018-02-21T04:06:41.079Z,1018.67
2018-02-21T04:07:07.177Z,1018.64
2018-02-21T04:07:33.273Z,1018.67
2018-02-21T04:07:59.370Z,1018.67
2018-02-21T04:08:25.490Z,1018.71
2018-02-21T04:08:51.599Z,1018.71
2018-02-21T04:09:17.702Z,1018.7
2018-02-21T04:09:43.802Z,1018.68
2018-02-21T04:10:09.896Z,1018.68
2018-02-21T04:10:36.013Z,1018.72
2018-02-21T04:11:02.112Z,1018.68
2018-02-21T04:11:28.206Z,1018.69
2018-02-21T04:11:54.311Z,1018.69
2018-02-21T04:12:20.414Z,1018.62
2018-02-21T04:12:46.508Z,1018.67
2018-02-21T04:13:12.604Z,1018.65
2018-02-21T04:13:38.708Z,1018.66
2018-02-21T04:14:04.803Z,1018.65
2018-02-21T04:14:30.904Z,1018.62
2018-02-21T04:14:56.999Z,1018.64
2018-02-21T04:15:23.100Z,1018.63
2018-02-21T04:15:49.194Z,1018.64
2018-02-21T04:16:15.294Z,1018.64
2018-02-21T04:16:41.402Z,1018.66
2018-02-21T04:17:07.492Z,1018.65
2018-02-21T04:17:33.595Z,1018.64
2018-02-21T04:17:59.691Z,1018.59
2018-02-21T04:18:25.793Z,1018.64
2018-02-21T04:18:51.891Z,1018.65
2018-02-21T04:19:17.989Z,1018.62
2018-02-21T04:19:44.084Z,1018.62
2018-02-21T04:20:10.180Z,1018.58
2018-02-21T04:20:36.280Z,1018.61
2018-02-21T04:21:02.376Z,1018.64
2018-02-21T04:21:28.479Z,1018.6
2018-02-21T04:21:54.602Z,1018.63
2018-02-21T04:22:20.704Z,1018.61
2018-02-21T04:22:46.809Z,1018.62
2018-02-21T04:23:12.902Z,1018.62
2018-02-21T04:23:38.995Z,1018.65
2018-02-21T04:24:05.099Z,1018.66
2018-02-21T04:24:31.210Z,1018.62
2018-02-21T04:24:57.294Z,1018.62
2018-02-21T04:25:23.401Z,1018.65
2018-02-21T04:25:49.493Z,1018.64
2018-02-21T04:26:15.589Z,1018.65
2018-02-21T04:26:41.682Z,1018.67
2018-02-21T04:27:07.785Z,1018.63
2018-02-21T04:27:33.901Z,1018.66
2018-02-21T04:28:00.001Z,1018.67
2018-02-21T04:28:26.106Z,1018.62
2018-02-21T04:28:52.210Z,1018.63
2018-02-21T04:29:18.315Z,1018.65
2018-02-21T04:29:44.415Z,1018.64
2018-02-21T04:30:10.519Z,1018.65
2018-02-21T04:30:36.617Z,1018.62
2018-02-21T04:31:02.722Z,1018.65
2018-02-21T04:31:28.835Z,1018.68
2018-02-21T04:31:54.928Z,1018.62
2018-02-21T04:32:21.031Z,1018.64
2018-02-21T04:32:47.129Z,1018.65
2018-02-21T04:33:13.229Z,1018.59
2018-02-21T04:33:39.322Z,1018.66
2018-02-21T04:34:05.419Z,1018.64
2018-02-21T04:34:31.522Z,1018.6
2018-02-21T04:34:57.617Z,1018.63
2018-02-21T04:35:23.721Z,1018.64
2018-02-21T04:35:49.821Z,1018.59
2018-02-21T04:36:15.930Z,1018.64
2018-02-21T04:36:42.035Z,1018.62
2018-02-21T04:37:08.131Z,1018.6
2018-02-21T04:37:34.228Z,1018.62
2018-02-21T04:38:00.375Z,1018.58
2018-02-21T04:38:26.430Z,1018.6
2018-02-21T04:38:52.543Z,1018.62
2018-02-21T04:39:18.638Z,1018.59
2018-02-21T04:39:44.740Z,1018.56
2018-02-21T04:40:10.841Z,1018.56
2018-02-21T04:40:36.945Z,1018.58
2018-02-21T04:41:03.056Z,1018.59
2018-02-21T04:41:29.149Z,1018.58
2018-02-21T04:41:55.258Z,1018.56
2018-02-21T04:42:21.349Z,1018.58
2018-02-21T04:42:47.446Z,1018.56
2018-02-21T04:43:13.547Z,1018.58
2018-02-21T04:43:39.680Z,1018.56
2018-02-21T04:44:05.768Z,1018.58
2018-02-21T04:44:31.862Z,1018.56
2018-02-21T04:44:57.977Z,1018.58
2018-02-21T04:45:24.070Z,1018.51
2018-02-21T04:45:50.184Z,1018.55
2018-02-21T04:46:16.285Z,1018.55
2018-02-21T04:46:42.383Z,1018.53
2018-02-21T04:47:08.504Z,1018.54
2018-02-21T04:47:34.603Z,1018.51
2018-02-21T04:48:00.697Z,1018.51
2018-02-21T04:48:26.800Z,1018.5
2018-02-21T04:48:52.899Z,1018.51
2018-02-21T04:49:19.015Z,1018.5
2018-02-21T04:49:45.127Z,1018.49
2018-02-21T04:50:11.222Z,1018.48
2018-02-21T04:50:37.326Z,1018.41
2018-02-21T04:51:03.420Z,1018.45
2018-02-21T04:51:29.520Z,1018.45
2018-02-21T04:51:55.618Z,1018.42
2018-02-21T04:52:21.716Z,1018.46
2018-02-21T04:52:47.821Z,1018.4
2018-02-21T04:53:13.917Z,1018.41
2018-02-21T04:53:40.022Z,1018.47
2018-02-21T04:54:06.121Z,1018.43
2018-02-21T04:54:32.216Z,1018.46
2018-02-21T04:54:58.318Z,1018.46
2018-02-21T04:55:24.412Z,1018.45
2018-02-21T04:55:50.512Z,1018.47
2018-02-21T04:56:16.607Z,1018.51
2018-02-21T04:56:42.703Z,1018.46
2018-02-21T04:57:08.805Z,1018.5
2018-02-21T04:57:34.906Z,1018.48
2018-02-21T04:58:00.999Z,1018.5
2018-02-21T04:58:27.117Z,1018.51
2018-02-21T04:58:53.219Z,1018.56
2018-02-21T04:59:19.316Z,1018.52
2018-02-21T04:59:45.437Z,1018.51
2018-02-21T05:00:11.536Z,1018.58
2018-02-21T05:00:37.710Z,1018.52
2018-02-21T05:01:03.744Z,1018.54
2018-02-21T05:01:29.842Z,1018.58
2018-02-21T05:01:55.962Z,1018.58
2018-02-21T05:02:22.061Z,1018.56
2018-02-21T05:02:48.161Z,1018.49
2018-02-21T05:03:14.258Z,1018.5
2018-02-21T05:03:40.362Z,1018.48
2018-02-21T05:04:06.459Z,1018.49
2018-02-21T05:04:32.553Z,1018.53
2018-02-21T05:04:58.652Z,1018.5
2018-02-21T05:05:24.749Z,1018.42
2018-02-21T05:05:50.858Z,1018.47
2018-02-21T05:06:16.951Z,1018.41
2018-02-21T05:06:43.057Z,1018.44
2018-02-21T05:07:09.168Z,1018.44
2018-02-21T05:07:35.268Z,1018.44
2018-02-21T05:08:01.368Z,1018.41
2018-02-21T05:08:27.459Z,1018.45
2018-02-21T05:08:53.556Z,1018.44
2018-02-21T05:09:19.657Z,1018.5
2018-02-21T05:09:45.754Z,1018.47
2018-02-21T05:10:11.860Z,1018.42
2018-02-21T05:10:37.963Z,1018.41
2018-02-21T05:11:04.062Z,1018.42
2018-02-21T05:11:30.159Z,1018.43
2018-02-21T05:11:56.259Z,1018.47
2018-02-21T05:12:22.365Z,1018.44
2018-02-21T05:12:48.460Z,1018.44
2018-02-21T05:13:14.559Z,1018.45
2018-02-21T05:13:40.660Z,1018.47
2018-02-21T05:14:06.757Z,1018.46
2018-02-21T05:14:32.858Z,1018.48
2018-02-21T05:14:58.953Z,1018.48
2018-02-21T05:15:25.050Z,1018.48
2018-02-21T05:15:51.146Z,1018.48
2018-02-21T05:16:17.252Z,1018.48